createdAt,value
2023-03-29T00:00:15.282Z,3.69
2023-03-29T00:03:01.177Z,3.92
2023-03-29T00:05:47.097Z,3.62
2023-03-29T00:08:32.968Z,3.64
2023-03-29T00:11:20.802Z,3.43
2023-03-29T00:14:06.731Z,3.64
2023-03-29T00:16:52.752Z,3.39
2023-03-29T00:19:38.575Z,3.70
2023-03-29T00:22:24.629Z,3.64
2023-03-29T00:25:10.395Z,3.84
2023-03-29T00:27:56.389Z,3.85
2023-03-29T00:30:42.214Z,3.46
2023-03-29T00:33:28.069Z,3.47
2023-03-29T00:36:13.910Z,3.32
2023-03-29T00:38:59.819Z,3.51
2023-03-29T00:41:45.533Z,2.96
2023-03-29T00:44:31.494Z,2.87
2023-03-29T00:47:17.309Z,2.89
2023-03-29T00:50:03.298Z,2.99
2023-03-29T00:52:49.182Z,3.15
2023-03-29T00:55:35.153Z,2.82
2023-03-29T00:58:20.963Z,2.99
2023-03-29T01:01:06.917Z,2.73
2023-03-29T01:03:52.817Z,2.54
2023-03-29T01:06:38.756Z,2.72
2023-03-29T01:09:24.485Z,2.49
2023-03-29T01:12:10.261Z,2.93
2023-03-29T01:14:56.146Z,2.57
2023-03-29T01:17:44.124Z,2.72
2023-03-29T01:20:30.089Z,2.78
2023-03-29T01:23:15.959Z,2.88
2023-03-29T01:26:01.841Z,2.99
2023-03-29T01:28:47.628Z,2.87
2023-03-29T01:31:33.489Z,2.78
2023-03-29T01:34:19.750Z,2.81
2023-03-29T01:37:05.653Z,2.75
2023-03-29T01:39:51.476Z,2.80
2023-03-29T01:42:37.437Z,2.64
2023-03-29T01:45:23.407Z,2.72
2023-03-29T01:48:09.208Z,2.83
2023-03-29T01:50:55.086Z,2.94
2023-03-29T01:53:40.869Z,2.80
2023-03-29T01:56:26.913Z,2.52
2023-03-29T01:59:12.948Z,2.75
2023-03-29T02:02:00.885Z,2.73
2023-03-29T02:04:46.828Z,2.84
2023-03-29T02:07:32.813Z,2.85
2023-03-29T02:10:18.722Z,2.55
2023-03-29T02:13:04.677Z,2.85
2023-03-29T02:15:50.635Z,2.51
2023-03-29T02:18:36.549Z,2.72
2023-03-29T02:21:22.485Z,2.64
2023-03-29T02:24:08.411Z,2.63
2023-03-29T02:26:54.270Z,2.38
2023-03-29T02:29:40.225Z,2.35
2023-03-29T02:32:26.043Z,2.50
2023-03-29T02:35:11.935Z,2.27
2023-03-29T02:37:57.771Z,2.32
2023-03-29T02:40:43.678Z,2.50
2023-03-29T02:43:29.593Z,2.38
2023-03-29T02:46:15.414Z,2.28
2023-03-29T02:49:01.303Z,2.23
2023-03-29T02:51:47.243Z,2.36
2023-03-29T02:54:33.076Z,2.36
2023-03-29T02:57:19.190Z,2.30
2023-03-29T03:00:05.134Z,2.16
2023-03-29T03:02:51.143Z,2.12
2023-03-29T03:05:37.318Z,2.22
2023-03-29T03:08:22.977Z,2.18
2023-03-29T03:11:08.947Z,2.09
2023-03-29T03:13:54.769Z,1.98
2023-03-29T03:16:40.736Z,1.87
2023-03-29T03:19:26.771Z,2.26
2023-03-29T03:22:12.568Z,1.91
2023-03-29T03:24:58.541Z,2.13
2023-03-29T03:27:44.393Z,1.95
2023-03-29T03:30:30.207Z,2.27
2023-03-29T03:33:16.090Z,1.85
2023-03-29T03:36:02.152Z,1.86
2023-03-29T03:38:48.323Z,1.95
2023-03-29T03:41:34.364Z,1.84
2023-03-29T03:44:20.172Z,1.79
2023-03-29T03:47:06.158Z,1.84
2023-03-29T03:49:51.953Z,1.99
2023-03-29T03:52:37.812Z,1.86
2023-03-29T03:55:23.721Z,1.72
2023-03-29T03:58:09.675Z,2.07
2023-03-29T04:00:55.576Z,1.93
2023-03-29T04:03:41.585Z,1.80
2023-03-29T04:06:27.758Z,1.80
2023-03-29T04:09:13.652Z,1.81
2023-03-29T04:11:59.644Z,1.81
2023-03-29T04:14:45.470Z,1.66
2023-03-29T04:17:31.495Z,1.76
2023-03-29T04:20:17.374Z,1.71
2023-03-29T04:23:03.202Z,1.83
2023-03-29T04:25:49.197Z,1.84
2023-03-29T04:28:35.004Z,1.82
2023-03-29T04:31:20.923Z,1.96
2023-03-29T04:34:06.817Z,1.86
2023-03-29T04:36:52.621Z,1.84
2023-03-29T04:39:38.367Z,1.86
2023-03-29T04:42:24.253Z,1.96
2023-03-29T04:45:10.271Z,1.84
2023-03-29T04:47:56.738Z,2.03
2023-03-29T04:50:42.842Z,1.87
2023-03-29T04:53:28.697Z,2.06
2023-03-29T04:56:14.526Z,1.79
2023-03-29T04:59:00.450Z,1.83
2023-03-29T05:01:46.407Z,1.80
2023-03-29T05:04:32.350Z,1.82
2023-03-29T05:07:18.394Z,1.78
2023-03-29T05:10:04.346Z,1.98
2023-03-29T05:12:50.163Z,1.60
2023-03-29T05:15:36.047Z,1.75
2023-03-29T05:18:21.873Z,1.66
2023-03-29T05:21:07.884Z,1.77
2023-03-29T05:23:54.260Z,1.67
2023-03-29T05:26:40.021Z,1.81
2023-03-29T05:29:25.833Z,1.65
2023-03-29T05:32:11.879Z,1.67
2023-03-29T05:35:05.173Z,1.54
2023-03-29T05:37:50.979Z,1.48
2023-03-29T05:40:36.994Z,1.65
2023-03-29T05:43:22.910Z,1.37
2023-03-29T05:46:08.707Z,1.60
2023-03-29T05:48:54.811Z,1.62
2023-03-29T05:51:40.628Z,1.72
2023-03-29T05:54:26.534Z,1.75
2023-03-29T05:57:12.621Z,1.83
2023-03-29T05:59:58.838Z,1.56
2023-03-29T06:02:44.895Z,1.47
2023-03-29T06:05:31.127Z,1.52
2023-03-29T06:08:17.036Z,1.62
2023-03-29T06:11:04.921Z,1.54
2023-03-29T06:13:51.483Z,1.49
2023-03-29T06:16:37.297Z,1.56
2023-03-29T06:19:23.061Z,1.66
2023-03-29T06:22:08.855Z,1.45
2023-03-29T06:24:54.638Z,1.60
2023-03-29T06:27:42.541Z,1.61
2023-03-29T06:30:28.301Z,1.48
2023-03-29T06:33:15.436Z,1.47
2023-03-29T06:36:01.522Z,1.57
2023-03-29T06:38:47.452Z,1.47
2023-03-29T06:41:33.302Z,1.49
2023-03-29T06:44:19.133Z,1.67
2023-03-29T06:47:04.978Z,1.39
2023-03-29T06:49:51.048Z,1.59
2023-03-29T06:52:36.890Z,1.71
2023-03-29T06:55:22.916Z,2.53
2023-03-29T06:58:08.975Z,1.78
2023-03-29T07:00:54.810Z,1.65
2023-03-29T07:03:40.771Z,1.50
2023-03-29T07:06:26.651Z,1.69
2023-03-29T07:09:12.562Z,1.52
2023-03-29T07:11:58.603Z,1.56
2023-03-29T07:14:46.272Z,1.70
2023-03-29T07:17:32.961Z,1.73
2023-03-29T07:20:18.764Z,1.83
2023-03-29T07:23:04.929Z,4.05
2023-03-29T07:25:50.838Z,3.85
2023-03-29T07:28:36.738Z,2.55
2023-03-29T07:31:22.606Z,2.69
2023-03-29T07:34:08.557Z,2.23
2023-03-29T07:36:54.374Z,2.47
2023-03-29T07:39:40.268Z,2.30
2023-03-29T07:42:26.214Z,2.69
2023-03-29T07:45:12.097Z,2.39
2023-03-29T07:47:58.107Z,2.29
2023-03-29T07:50:44.397Z,2.03
2023-03-29T07:53:30.189Z,2.54
2023-03-29T07:56:16.213Z,1.73
2023-03-29T07:59:02.121Z,2.99
2023-03-29T08:01:48.101Z,2.72
2023-03-29T08:04:34.308Z,2.78
2023-03-29T08:07:20.417Z,2.32
2023-03-29T08:10:06.540Z,2.09
2023-03-29T08:12:52.594Z,2.28
2023-03-29T08:15:38.414Z,1.51
2023-03-29T08:18:24.340Z,1.91
2023-03-29T08:21:10.042Z,1.59
2023-03-29T08:23:56.070Z,1.69
2023-03-29T08:26:41.960Z,1.96
2023-03-29T08:29:27.916Z,1.68
2023-03-29T08:32:13.823Z,2.07
2023-03-29T08:34:59.746Z,2.08
2023-03-29T08:37:45.537Z,2.29
2023-03-29T08:40:31.380Z,1.70
2023-03-29T08:43:17.253Z,2.08
2023-03-29T08:46:03.039Z,2.33
2023-03-29T08:48:49.086Z,1.50
2023-03-29T08:51:36.899Z,1.56
2023-03-29T08:54:22.826Z,1.48
2023-03-29T08:57:08.782Z,1.57
2023-03-29T08:59:54.723Z,1.70
2023-03-29T09:02:40.877Z,1.57
2023-03-29T09:05:27.034Z,1.39
2023-03-29T09:08:12.847Z,1.61
2023-03-29T09:10:58.762Z,1.50
2023-03-29T09:13:44.491Z,1.50
2023-03-29T09:16:30.507Z,1.49
2023-03-29T09:19:16.630Z,1.25
2023-03-29T09:22:02.507Z,1.47
2023-03-29T09:24:48.310Z,1.47
2023-03-29T09:27:34.336Z,1.67
2023-03-29T09:30:20.195Z,1.60
2023-03-29T09:33:06.373Z,1.31
2023-03-29T09:35:52.657Z,1.50
2023-03-29T09:38:38.587Z,1.47
2023-03-29T09:41:24.552Z,1.49
2023-03-29T09:44:20.582Z,1.80
2023-03-29T09:47:13.953Z,1.67
2023-03-29T09:49:59.864Z,1.50
2023-03-29T09:52:45.804Z,1.41
2023-03-29T09:55:31.654Z,1.67
2023-03-29T09:58:18.076Z,1.69
2023-03-29T10:01:04.121Z,1.71
2023-03-29T10:03:50.459Z,1.37
2023-03-29T10:06:36.352Z,1.47
2023-03-29T10:09:22.312Z,1.41
2023-03-29T10:12:08.297Z,1.57
2023-03-29T10:14:54.240Z,1.46
2023-03-29T10:17:40.783Z,1.42
2023-03-29T10:20:26.925Z,1.43
2023-03-29T10:23:12.725Z,1.35
2023-03-29T10:25:58.601Z,1.51
2023-03-29T10:28:44.595Z,1.47
2023-03-29T10:31:30.394Z,1.47
2023-03-29T10:34:16.370Z,1.44
2023-03-29T10:37:02.258Z,1.28
2023-03-29T10:39:48.334Z,1.48
2023-03-29T10:42:34.236Z,1.60
2023-03-29T10:45:20.150Z,1.49
2023-03-29T10:48:06.059Z,1.62
2023-03-29T10:50:52.035Z,1.45
2023-03-29T10:53:37.876Z,1.93
2023-03-29T10:56:23.860Z,1.64
2023-03-29T10:59:09.755Z,1.50
2023-03-29T11:01:55.808Z,1.83
2023-03-29T11:04:41.950Z,1.75
2023-03-29T11:07:28.025Z,1.67
2023-03-29T11:10:16.146Z,1.87
2023-03-29T11:13:01.984Z,1.63
2023-03-29T11:15:48.017Z,1.48
2023-03-29T11:18:34.066Z,1.50
2023-03-29T11:21:19.960Z,1.62
2023-03-29T11:24:05.807Z,1.54
2023-03-29T11:26:51.584Z,1.45
2023-03-29T11:29:37.394Z,1.53
2023-03-29T11:32:23.311Z,1.65
2023-03-29T11:35:09.192Z,1.75
2023-03-29T11:37:55.001Z,1.65
2023-03-29T11:40:41.122Z,1.71
2023-03-29T11:43:28.341Z,1.66
2023-03-29T11:46:14.322Z,1.68
2023-03-29T11:49:00.271Z,1.58
2023-03-29T11:51:46.216Z,1.74
2023-03-29T11:54:32.154Z,1.90
2023-03-29T11:57:18.047Z,1.54
2023-03-29T12:00:06.260Z,1.75
2023-03-29T12:02:52.211Z,1.63
2023-03-29T12:05:38.554Z,1.62
2023-03-29T12:08:24.492Z,1.66
2023-03-29T12:11:10.500Z,1.93
2023-03-29T12:13:56.268Z,1.67
2023-03-29T12:16:42.303Z,1.72
2023-03-29T12:19:28.317Z,1.64
2023-03-29T12:22:14.098Z,1.89
2023-03-29T12:25:00.152Z,1.71
2023-03-29T12:27:45.999Z,1.92
2023-03-29T12:30:34.152Z,1.93
2023-03-29T12:33:20.382Z,1.64
2023-03-29T12:36:06.384Z,1.87
2023-03-29T12:38:52.276Z,1.85
2023-03-29T12:41:38.186Z,1.94
2023-03-29T12:44:24.043Z,1.94
2023-03-29T12:47:10.054Z,1.73
2023-03-29T12:49:56.003Z,2.05
2023-03-29T12:52:42.068Z,1.90
2023-03-29T12:55:28.036Z,1.78
2023-03-29T12:58:13.870Z,1.90
2023-03-29T13:00:59.764Z,1.74
2023-03-29T13:03:45.678Z,1.90
2023-03-29T13:06:31.472Z,1.89
2023-03-29T13:09:17.742Z,1.88
2023-03-29T13:12:03.613Z,1.70
2023-03-29T13:14:49.507Z,1.95
2023-03-29T13:17:35.517Z,1.93
2023-03-29T13:20:21.524Z,1.89
2023-03-29T13:23:07.376Z,2.03
2023-03-29T13:25:53.212Z,2.10
2023-03-29T13:28:39.056Z,1.92
2023-03-29T13:31:25.020Z,1.85
2023-03-29T13:34:10.955Z,2.12
2023-03-29T13:36:56.841Z,1.93
2023-03-29T13:39:42.754Z,2.15
2023-03-29T13:42:28.596Z,1.78
2023-03-29T13:45:14.450Z,2.05
2023-03-29T13:48:05.075Z,1.93
2023-03-29T13:50:51.903Z,1.87
2023-03-29T13:53:37.949Z,2.01
2023-03-29T13:56:23.905Z,2.16
2023-03-29T13:59:09.836Z,1.87
2023-03-29T14:01:55.808Z,2.17
2023-03-29T14:04:41.666Z,2.04
2023-03-29T14:07:27.365Z,2.16
2023-03-29T14:10:15.345Z,2.21
2023-03-29T14:13:04.282Z,2.06
2023-03-29T14:15:49.963Z,2.23
2023-03-29T14:18:35.845Z,2.30
2023-03-29T14:21:21.840Z,2.14
2023-03-29T14:24:07.706Z,2.23
2023-03-29T14:26:53.498Z,2.36
2023-03-29T14:29:39.517Z,2.15
2023-03-29T14:32:25.478Z,2.11
2023-03-29T14:35:11.589Z,2.21
2023-03-29T14:37:57.418Z,2.22
2023-03-29T14:40:43.374Z,2.27
2023-03-29T14:43:29.450Z,2.01
2023-03-29T14:46:15.321Z,2.41
2023-03-29T14:49:01.188Z,2.32
2023-03-29T14:51:47.115Z,2.48
2023-03-29T14:54:33.003Z,2.55
2023-03-29T14:57:18.974Z,2.36
2023-03-29T15:00:06.888Z,2.53
2023-03-29T15:02:52.853Z,2.29
2023-03-29T15:05:39.148Z,2.46
2023-03-29T15:08:24.944Z,2.53
2023-03-29T15:11:10.929Z,2.57
2023-03-29T15:13:56.808Z,2.16
2023-03-29T15:16:42.647Z,2.16
2023-03-29T15:19:28.505Z,2.27
2023-03-29T15:22:14.437Z,2.19
2023-03-29T15:25:00.376Z,2.41
2023-03-29T15:27:46.362Z,3.31
2023-03-29T15:30:32.118Z,2.48
2023-03-29T15:33:18.154Z,2.39
2023-03-29T15:36:04.592Z,2.73
2023-03-29T15:38:50.818Z,2.53
2023-03-29T15:41:36.857Z,2.23
2023-03-29T15:44:22.762Z,2.23
2023-03-29T15:47:08.737Z,2.48
2023-03-29T15:49:54.713Z,2.65
2023-03-29T15:52:40.547Z,2.23
2023-03-29T15:55:26.447Z,2.61
2023-03-29T15:58:12.667Z,2.38
2023-03-29T16:00:58.763Z,2.29
2023-03-29T16:03:46.263Z,2.68
2023-03-29T16:06:33.731Z,3.32
2023-03-29T16:09:19.462Z,4.06
2023-03-29T16:12:05.347Z,2.69
2023-03-29T16:14:51.223Z,2.48
2023-03-29T16:17:37.197Z,2.66
2023-03-29T16:20:23.175Z,2.45
2023-03-29T16:23:09.087Z,2.42
2023-03-29T16:25:54.962Z,2.33
2023-03-29T16:28:40.877Z,2.35
2023-03-29T16:31:26.688Z,2.14
2023-03-29T16:34:12.704Z,2.49
2023-03-29T16:36:58.516Z,2.47
2023-03-29T16:39:44.325Z,2.31
2023-03-29T16:42:30.407Z,2.34
2023-03-29T16:45:16.319Z,2.26
2023-03-29T16:48:02.451Z,2.53
2023-03-29T16:50:48.499Z,2.38
2023-03-29T16:53:34.577Z,2.18
2023-03-29T16:56:20.425Z,2.51
2023-03-29T16:59:06.308Z,2.58
2023-03-29T17:01:52.391Z,2.34
2023-03-29T17:04:38.749Z,2.74
2023-03-29T17:07:24.866Z,2.43
2023-03-29T17:10:10.853Z,2.30
2023-03-29T17:12:56.863Z,2.42
2023-03-29T17:15:42.728Z,2.28
2023-03-29T17:18:28.680Z,2.30
2023-03-29T17:21:14.643Z,2.71
2023-03-29T17:24:00.567Z,2.50
2023-03-29T17:26:46.594Z,2.84
2023-03-29T17:29:32.500Z,2.59
2023-03-29T17:32:18.440Z,2.73
2023-03-29T17:35:04.327Z,2.29
2023-03-29T17:37:50.213Z,2.74
2023-03-29T17:40:36.220Z,2.70
2023-03-29T17:43:22.231Z,2.56
2023-03-29T17:46:08.176Z,2.81
2023-03-29T17:48:54.147Z,2.76
2023-03-29T17:51:39.871Z,2.86
2023-03-29T17:54:25.871Z,2.48
2023-03-29T17:57:11.997Z,2.63
2023-03-29T17:59:58.217Z,2.51
2023-03-29T18:02:44.303Z,2.70
2023-03-29T18:05:30.248Z,2.49
2023-03-29T18:08:16.189Z,2.61
2023-03-29T18:11:02.050Z,2.50
2023-03-29T18:13:47.930Z,2.70
2023-03-29T18:16:33.846Z,2.64
2023-03-29T18:19:19.719Z,2.57
2023-03-29T18:22:05.557Z,2.60
2023-03-29T18:24:51.484Z,2.82
2023-03-29T18:27:37.262Z,2.86
2023-03-29T18:30:23.173Z,2.62
2023-03-29T18:33:09.026Z,2.70
2023-03-29T18:35:55.012Z,3.07
2023-03-29T18:38:41.047Z,2.63
2023-03-29T18:41:26.820Z,2.60
2023-03-29T18:44:12.688Z,2.47
2023-03-29T18:46:58.605Z,2.79
2023-03-29T18:49:44.518Z,2.95
2023-03-29T18:52:30.482Z,2.87
2023-03-29T18:55:16.394Z,2.73
2023-03-29T18:58:02.234Z,2.78
2023-03-29T19:00:50.142Z,2.84
2023-03-29T19:03:36.222Z,3.03
2023-03-29T19:06:22.315Z,2.56
2023-03-29T19:09:08.318Z,2.42
2023-03-29T19:11:54.275Z,2.94
2023-03-29T19:14:40.269Z,2.75
2023-03-29T19:17:26.236Z,2.95
2023-03-29T19:20:12.139Z,2.92
2023-03-29T19:22:58.053Z,2.84
2023-03-29T19:25:44.041Z,2.78
2023-03-29T19:28:29.963Z,2.82
2023-03-29T19:31:15.941Z,2.91
2023-03-29T19:34:02.019Z,2.91
2023-03-29T19:36:47.956Z,2.78
2023-03-29T19:39:33.985Z,2.78
2023-03-29T19:42:19.809Z,2.96
2023-03-29T19:45:05.631Z,3.23
2023-03-29T19:50:39.221Z,2.93
2023-03-29T19:53:25.003Z,3.17
2023-03-29T19:56:11.007Z,3.33
2023-03-29T19:58:57.247Z,2.81
2023-03-29T20:01:43.174Z,2.79
2023-03-29T20:04:29.134Z,2.96
2023-03-29T20:07:15.356Z,2.88
2023-03-29T20:10:01.353Z,2.83
2023-03-29T20:12:47.180Z,2.84
2023-03-29T20:15:33.097Z,2.96
2023-03-29T20:18:18.891Z,2.90
2023-03-29T20:21:05.102Z,2.89
2023-03-29T20:23:51.138Z,3.03
2023-03-29T20:26:36.926Z,2.90
2023-03-29T20:29:22.836Z,3.06
2023-03-29T20:32:08.926Z,3.01
2023-03-29T20:34:55.140Z,2.70
2023-03-29T20:37:40.970Z,2.80
2023-03-29T20:40:26.797Z,2.84
2023-03-29T20:43:12.644Z,3.10
2023-03-29T20:45:58.644Z,2.98
2023-03-29T20:48:44.320Z,2.99
2023-03-29T20:51:30.138Z,3.05
2023-03-29T20:54:15.996Z,3.17
2023-03-29T20:57:01.917Z,2.97
2023-03-29T20:59:47.853Z,2.88
2023-03-29T21:02:33.772Z,2.67
2023-03-29T21:05:19.791Z,2.61
2023-03-29T21:08:05.611Z,2.71
2023-03-29T21:10:51.451Z,2.71
2023-03-29T21:13:37.450Z,2.85
2023-03-29T21:16:23.480Z,3.07
2023-03-29T21:19:11.388Z,3.00
2023-03-29T21:21:57.294Z,2.99
2023-03-29T21:24:43.169Z,2.83
2023-03-29T21:27:28.908Z,2.62
2023-03-29T21:30:14.759Z,2.95
2023-03-29T21:33:00.726Z,2.75
2023-03-29T21:35:47.105Z,3.17
2023-03-29T21:38:32.968Z,3.29
2023-03-29T21:41:18.746Z,2.87
2023-03-29T21:44:04.684Z,3.03
2023-03-29T21:46:50.677Z,3.13
2023-03-29T21:49:36.465Z,2.76
2023-03-29T21:52:22.298Z,2.88
2023-03-29T21:55:08.123Z,3.05
2023-03-29T21:57:54.111Z,2.95
2023-03-29T22:00:40.077Z,3.02
2023-03-29T22:03:26.447Z,3.07
2023-03-29T22:06:12.395Z,3.13
2023-03-29T22:08:58.266Z,2.92
2023-03-29T22:11:44.178Z,2.99
2023-03-29T22:14:30.000Z,3.10
2023-03-29T22:17:15.854Z,3.10
2023-03-29T22:20:01.677Z,3.05
2023-03-29T22:23:06.536Z,3.44
2023-03-29T22:25:52.384Z,3.25
2023-03-29T22:28:38.259Z,3.55
2023-03-29T22:31:24.134Z,3.40
2023-03-29T22:34:09.982Z,3.22
2023-03-29T22:36:55.924Z,2.98
2023-03-29T22:39:43.749Z,2.97
2023-03-29T22:42:29.640Z,3.30
2023-03-29T22:45:15.613Z,3.24
2023-03-29T22:48:01.519Z,3.85
2023-03-29T22:50:47.451Z,3.51
2023-03-29T22:53:33.408Z,3.36
2023-03-29T22:56:19.250Z,3.52
2023-03-29T22:59:05.190Z,3.39
2023-03-29T23:01:51.115Z,3.59
2023-03-29T23:04:37.312Z,3.69
2023-03-29T23:07:23.341Z,3.46
2023-03-29T23:10:09.248Z,3.14
2023-03-29T23:12:55.197Z,3.87
2023-03-29T23:15:41.268Z,3.41
2023-03-29T23:18:27.266Z,3.38
2023-03-29T23:21:15.164Z,3.59
2023-03-29T23:24:01.005Z,3.39
2023-03-29T23:26:46.690Z,3.81
2023-03-29T23:29:32.637Z,3.36
2023-03-29T23:32:18.617Z,3.15
2023-03-29T23:35:04.540Z,3.47
2023-03-29T23:37:50.367Z,3.60
2023-03-29T23:40:36.126Z,3.82
2023-03-29T23:43:22.091Z,3.55
2023-03-29T23:46:08.024Z,3.49
2023-03-29T23:48:53.958Z,3.48
2023-03-29T23:51:39.889Z,3.38
2023-03-29T23:54:25.684Z,3.15
2023-03-29T23:57:11.634Z,3.26
2023-03-29T23:59:57.662Z,3.31
